LPE2510 SEQM-SVMI
Flight info
| Callsign | LPE2510 |
|---|---|
| Flight time | N/A |
| Altitude | 39000 |
| Route | ARNOK3A ARNOK UP533 PBL ALDAK1 |
| Aircraft | B763/H-SDE3FGHIM3RWXY/LB1 |
Departure
| Time | N/A |
|---|---|
| Airport | Mariscal Sucre International Airport (SEQM) |
Arrival
| Time | 2026-04-28 03:44 |
|---|---|
| Airport | Maiquetía Simón Bolívar International Airport (SVMI) |
| Time | Latitude | Longitude | Altitude | Speed | Heading |
|---|---|---|---|---|---|
| 2026-04-28 02:58 | 8.07844 | -70.81068 | 36987 ft | 481 kts | 46° |
| 2026-04-28 02:59 | 8.10135 | -70.78564 | 37011 ft | 480 kts | 47° |
| 2026-04-28 02:59 | 8.14677 | -70.73595 | 36995 ft | 480 kts | 47° |
| 2026-04-28 03:00 | 8.19216 | -70.68630 | 36993 ft | 480 kts | 47° |
| 2026-04-28 03:00 | 8.23747 | -70.63670 | 37024 ft | 480 kts | 47° |
| 2026-04-28 03:01 | 8.28321 | -70.58662 | 37000 ft | 480 kts | 47° |
| 2026-04-28 03:01 | 8.32863 | -70.53687 | 37012 ft | 481 kts | 47° |
| 2026-04-28 03:02 | 8.37398 | -70.48717 | 37011 ft | 480 kts | 47° |
| 2026-04-28 03:02 | 8.41921 | -70.43760 | 37011 ft | 480 kts | 47° |
| 2026-04-28 03:03 | 8.46475 | -70.38766 | 37009 ft | 480 kts | 47° |
| 2026-04-28 03:03 | 8.51005 | -70.33797 | 36990 ft | 480 kts | 47° |
| 2026-04-28 03:04 | 8.55556 | -70.28803 | 37000 ft | 480 kts | 47° |
| 2026-04-28 03:04 | 8.60091 | -70.23824 | 36997 ft | 480 kts | 47° |
| 2026-04-28 03:05 | 8.64559 | -70.18803 | 37000 ft | 480 kts | 48° |
| 2026-04-28 03:05 | 8.69021 | -70.13715 | 37000 ft | 480 kts | 48° |
| 2026-04-28 03:06 | 8.73473 | -70.08639 | 36982 ft | 480 kts | 48° |
| 2026-04-28 03:06 | 8.77904 | -70.03587 | 37011 ft | 480 kts | 48° |
| 2026-04-28 03:07 | 8.82342 | -69.98523 | 36968 ft | 480 kts | 48° |
| 2026-04-28 03:07 | 8.86783 | -69.93454 | 36968 ft | 480 kts | 48° |
| 2026-04-28 03:08 | 8.91223 | -69.88384 | 36980 ft | 480 kts | 48° |
| 2026-04-28 03:08 | 8.95656 | -69.83321 | 36976 ft | 480 kts | 49° |
| 2026-04-28 03:09 | 9.00103 | -69.78239 | 36982 ft | 479 kts | 49° |
| 2026-04-28 03:09 | 9.04527 | -69.73181 | 36969 ft | 480 kts | 49° |
| 2026-04-28 03:10 | 9.08969 | -69.68101 | 36965 ft | 479 kts | 49° |
| 2026-04-28 03:10 | 9.13407 | -69.63023 | 36968 ft | 479 kts | 49° |
| 2026-04-28 03:11 | 9.17828 | -69.57964 | 36977 ft | 480 kts | 49° |
| 2026-04-28 03:11 | 9.22281 | -69.52864 | 36973 ft | 481 kts | 49° |
| 2026-04-28 03:12 | 9.26718 | -69.47781 | 36965 ft | 479 kts | 49° |
| 2026-04-28 03:12 | 9.31160 | -69.42691 | 36983 ft | 480 kts | 49° |
| 2026-04-28 03:13 | 9.35587 | -69.37615 | 36987 ft | 480 kts | 49° |
| 2026-04-28 03:13 | 9.40007 | -69.32546 | 36985 ft | 480 kts | 49° |
| 2026-04-28 03:14 | 9.44450 | -69.27448 | 36978 ft | 479 kts | 49° |
| 2026-04-28 03:14 | 9.48875 | -69.22369 | 36961 ft | 480 kts | 49° |
| 2026-04-28 03:15 | 9.53308 | -69.17278 | 36963 ft | 479 kts | 49° |
| 2026-04-28 03:15 | 9.57714 | -69.12215 | 36968 ft | 479 kts | 49° |
| 2026-04-28 03:16 | 9.62162 | -69.07104 | 36358 ft | 491 kts | 49° |
| 2026-04-28 03:16 | 9.64414 | -69.04516 | 36197 ft | 483 kts | 49° |
| 2026-04-28 03:16 | 9.66628 | -69.01972 | 35740 ft | 484 kts | 49° |
| 2026-04-28 03:16 | 9.68884 | -68.99381 | 35043 ft | 486 kts | 49° |
| 2026-04-28 03:17 | 9.71111 | -68.96823 | 34393 ft | 484 kts | 49° |
| 2026-04-28 03:17 | 9.75574 | -68.91694 | 33135 ft | 481 kts | 50° |
| 2026-04-28 03:17 | 9.77803 | -68.89130 | 32541 ft | 482 kts | 50° |
| 2026-04-28 03:18 | 9.80007 | -68.86597 | 31975 ft | 485 kts | 50° |
| 2026-04-28 03:18 | 9.82226 | -68.84043 | 31751 ft | 475 kts | 50° |
| 2026-04-28 03:18 | 9.84408 | -68.81534 | 31745 ft | 459 kts | 50° |
| 2026-04-28 03:18 | 9.86489 | -68.79138 | 31480 ft | 451 kts | 50° |
| 2026-04-28 03:19 | 9.88550 | -68.76765 | 30948 ft | 448 kts | 50° |
| 2026-04-28 03:19 | 9.90614 | -68.74388 | 30511 ft | 443 kts | 50° |
| 2026-04-28 03:19 | 9.92656 | -68.72036 | 30031 ft | 439 kts | 50° |
| 2026-04-28 03:19 | 9.94651 | -68.69738 | 29574 ft | 435 kts | 50° |
| 2026-04-28 03:20 | 9.96665 | -68.67417 | 29101 ft | 431 kts | 51° |
| 2026-04-28 03:20 | 9.98639 | -68.65144 | 28605 ft | 426 kts | 51° |
| 2026-04-28 03:20 | 10.00595 | -68.62888 | 27821 ft | 423 kts | 50° |
| 2026-04-28 03:20 | 10.02515 | -68.60675 | 27044 ft | 419 kts | 50° |
| 2026-04-28 03:21 | 10.04434 | -68.58468 | 26368 ft | 413 kts | 50° |
| 2026-04-28 03:21 | 10.06334 | -68.56284 | 25944 ft | 413 kts | 50° |
| 2026-04-28 03:21 | 10.08255 | -68.54075 | 25439 ft | 412 kts | 50° |
| 2026-04-28 03:21 | 10.10136 | -68.51912 | 24944 ft | 410 kts | 50° |
| 2026-04-28 03:22 | 10.12019 | -68.49747 | 24446 ft | 407 kts | 50° |
| 2026-04-28 03:22 | 10.13890 | -68.47595 | 23956 ft | 405 kts | 50° |
| 2026-04-28 03:22 | 10.15757 | -68.45447 | 23473 ft | 402 kts | 50° |
| 2026-04-28 03:22 | 10.17607 | -68.43319 | 23003 ft | 399 kts | 50° |
| 2026-04-28 03:23 | 10.19436 | -68.41214 | 22539 ft | 396 kts | 50° |
| 2026-04-28 03:23 | 10.21265 | -68.39108 | 22087 ft | 394 kts | 50° |
| 2026-04-28 03:23 | 10.23071 | -68.37029 | 21643 ft | 391 kts | 50° |
| 2026-04-28 03:23 | 10.24870 | -68.34958 | 21202 ft | 388 kts | 50° |
| 2026-04-28 03:24 | 10.26657 | -68.32900 | 20757 ft | 385 kts | 50° |
| 2026-04-28 03:24 | 10.28432 | -68.30855 | 20308 ft | 383 kts | 50° |
| 2026-04-28 03:24 | 10.30189 | -68.28831 | 19862 ft | 380 kts | 50° |
| 2026-04-28 03:24 | 10.31920 | -68.26836 | 19412 ft | 378 kts | 50° |
| 2026-04-28 03:25 | 10.33663 | -68.24827 | 18953 ft | 376 kts | 50° |
| 2026-04-28 03:25 | 10.35404 | -68.22820 | 18487 ft | 374 kts | 50° |
| 2026-04-28 03:25 | 10.37123 | -68.20838 | 18017 ft | 372 kts | 50° |
| 2026-04-28 03:25 | 10.38837 | -68.18861 | 17528 ft | 371 kts | 50° |
| 2026-04-28 03:26 | 10.40530 | -68.16910 | 17035 ft | 369 kts | 50° |
| 2026-04-28 03:26 | 10.42233 | -68.14945 | 16513 ft | 369 kts | 50° |
| 2026-04-28 03:26 | 10.43946 | -68.12969 | 15926 ft | 370 kts | 50° |
| 2026-04-28 03:26 | 10.45631 | -68.11025 | 15559 ft | 363 kts | 50° |
| 2026-04-28 03:27 | 10.47282 | -68.09081 | 15138 ft | 360 kts | 54° |
| 2026-04-28 03:27 | 10.48498 | -68.06895 | 14460 ft | 361 kts | 72° |
| 2026-04-28 03:27 | 10.49139 | -68.04479 | 14355 ft | 345 kts | 77° |
| 2026-04-28 03:27 | 10.49738 | -68.02111 | 13965 ft | 341 kts | 77° |
| 2026-04-28 03:28 | 10.50303 | -67.99799 | 13613 ft | 337 kts | 77° |
| 2026-04-28 03:28 | 10.50857 | -67.97502 | 13255 ft | 332 kts | 77° |
| 2026-04-28 03:28 | 10.51405 | -67.95213 | 12904 ft | 329 kts | 78° |
| 2026-04-28 03:28 | 10.51939 | -67.92968 | 12561 ft | 327 kts | 78° |
| 2026-04-28 03:29 | 10.52474 | -67.90713 | 12205 ft | 324 kts | 78° |
| 2026-04-28 03:29 | 10.53003 | -67.88483 | 11854 ft | 323 kts | 78° |
| 2026-04-28 03:29 | 10.53520 | -67.86298 | 11500 ft | 320 kts | 78° |
| 2026-04-28 03:29 | 10.54041 | -67.84097 | 11131 ft | 318 kts | 78° |
| 2026-04-28 03:30 | 10.54560 | -67.81903 | 10767 ft | 314 kts | 78° |
| 2026-04-28 03:30 | 10.55064 | -67.79770 | 10415 ft | 312 kts | 78° |
| 2026-04-28 03:30 | 10.55574 | -67.77616 | 10047 ft | 310 kts | 78° |
| 2026-04-28 03:30 | 10.56071 | -67.75511 | 9692 ft | 308 kts | 78° |
| 2026-04-28 03:31 | 10.56574 | -67.73380 | 9331 ft | 305 kts | 78° |
| 2026-04-28 03:31 | 10.57064 | -67.71305 | 9123 ft | 300 kts | 78° |
| 2026-04-28 03:31 | 10.57544 | -67.69270 | 9131 ft | 297 kts | 78° |
| 2026-04-28 03:31 | 10.58025 | -67.67197 | 9135 ft | 302 kts | 81° |
| 2026-04-28 03:32 | 10.58208 | -67.65060 | 9141 ft | 298 kts | 90° |
| 2026-04-28 03:32 | 10.58284 | -67.62982 | 9121 ft | 284 kts | 89° |
| 2026-04-28 03:32 | 10.58359 | -67.61005 | 8936 ft | 277 kts | 89° |
| 2026-04-28 03:32 | 10.58428 | -67.59061 | 8575 ft | 277 kts | 89° |
| 2026-04-28 03:33 | 10.58497 | -67.57111 | 8288 ft | 273 kts | 89° |
| 2026-04-28 03:33 | 10.58565 | -67.55167 | 7922 ft | 273 kts | 89° |
| 2026-04-28 03:33 | 10.58631 | -67.53259 | 7575 ft | 272 kts | 89° |
| 2026-04-28 03:33 | 10.58698 | -67.51337 | 7242 ft | 271 kts | 89° |
| 2026-04-28 03:34 | 10.58763 | -67.49437 | 7063 ft | 263 kts | 89° |
| 2026-04-28 03:34 | 10.58826 | -67.47620 | 7013 ft | 248 kts | 89° |
| 2026-04-28 03:34 | 10.58886 | -67.45901 | 6961 ft | 236 kts | 89° |
| 2026-04-28 03:34 | 10.58942 | -67.44269 | 6934 ft | 224 kts | 89° |
| 2026-04-28 03:35 | 10.58995 | -67.42723 | 6886 ft | 213 kts | 89° |
| 2026-04-28 03:35 | 10.59045 | -67.41251 | 6727 ft | 208 kts | 89° |
| 2026-04-28 03:35 | 10.59095 | -67.39769 | 6450 ft | 208 kts | 89° |
| 2026-04-28 03:35 | 10.59145 | -67.38305 | 6187 ft | 205 kts | 89° |
| 2026-04-28 03:36 | 10.59194 | -67.36852 | 5876 ft | 205 kts | 89° |
| 2026-04-28 03:36 | 10.59243 | -67.35413 | 5550 ft | 207 kts | 89° |
| 2026-04-28 03:36 | 10.59292 | -67.33946 | 5244 ft | 205 kts | 89° |
| 2026-04-28 03:36 | 10.59343 | -67.32492 | 4921 ft | 205 kts | 89° |
| 2026-04-28 03:37 | 10.59397 | -67.31048 | 4655 ft | 201 kts | 88° |
| 2026-04-28 03:37 | 10.59443 | -67.29667 | 4644 ft | 188 kts | 89° |
| 2026-04-28 03:37 | 10.59487 | -67.28372 | 4484 ft | 185 kts | 88° |
| 2026-04-28 03:37 | 10.59531 | -67.27049 | 4240 ft | 186 kts | 88° |
| 2026-04-28 03:38 | 10.59575 | -67.25732 | 4035 ft | 185 kts | 88° |
| 2026-04-28 03:38 | 10.59618 | -67.24436 | 3983 ft | 178 kts | 88° |
| 2026-04-28 03:38 | 10.59659 | -67.23199 | 4022 ft | 175 kts | 88° |
| 2026-04-28 03:38 | 10.59700 | -67.21981 | 3985 ft | 166 kts | 88° |
| 2026-04-28 03:39 | 10.59738 | -67.20839 | 3858 ft | 163 kts | 88° |
| 2026-04-28 03:39 | 10.59777 | -67.19682 | 3663 ft | 161 kts | 88° |
| 2026-04-28 03:39 | 10.59815 | -67.18533 | 3458 ft | 161 kts | 88° |
| 2026-04-28 03:39 | 10.59853 | -67.17396 | 3260 ft | 160 kts | 88° |
| 2026-04-28 03:40 | 10.59890 | -67.16262 | 3065 ft | 161 kts | 87° |
| 2026-04-28 03:40 | 10.59928 | -67.15115 | 2861 ft | 161 kts | 87° |
| 2026-04-28 03:40 | 10.59965 | -67.13985 | 2660 ft | 160 kts | 87° |
| 2026-04-28 03:40 | 10.60002 | -67.12845 | 2451 ft | 159 kts | 87° |
| 2026-04-28 03:41 | 10.60039 | -67.11717 | 2250 ft | 160 kts | 86° |
| 2026-04-28 03:41 | 10.60075 | -67.10606 | 2034 ft | 156 kts | 86° |
| 2026-04-28 03:41 | 10.60111 | -67.09502 | 1832 ft | 152 kts | 86° |
| 2026-04-28 03:41 | 10.60146 | -67.08448 | 1622 ft | 148 kts | 86° |
| 2026-04-28 03:42 | 10.60180 | -67.07398 | 1428 ft | 146 kts | 86° |
| 2026-04-28 03:42 | 10.60215 | -67.06350 | 1252 ft | 150 kts | 86° |
| 2026-04-28 03:42 | 10.60268 | -67.05281 | 1052 ft | 151 kts | 86° |
| 2026-04-28 03:42 | 10.60294 | -67.04215 | 867 ft | 152 kts | 88° |
| 2026-04-28 03:43 | 10.60324 | -67.03121 | 670 ft | 154 kts | 88° |
| 2026-04-28 03:43 | 10.60357 | -67.02027 | 469 ft | 157 kts | 88° |
| 2026-04-28 03:43 | 10.60368 | -67.01653 | 392 ft | 157 kts | 87° |
| 2026-04-28 03:44 | 10.60435 | -66.99481 | 269 ft | 49 kts | 88° |
| 2026-04-28 03:44 | 10.60444 | -66.99272 | 258 ft | 18 kts | 85° |
| 2026-04-28 03:44 | 10.60425 | -66.99129 | 249 ft | 16 kts | 156° |
| 2026-04-28 03:44 | 10.60322 | -66.99121 | 251 ft | 11 kts | 181° |
| 2026-04-28 03:45 | 10.60278 | -66.99149 | 255 ft | 6 kts | 249° |
| 2026-04-28 03:45 | 10.60272 | -66.99226 | 258 ft | 16 kts | 269° |
| 2026-04-28 03:45 | 10.60273 | -66.99376 | 266 ft | 25 kts | 278° |
| 2026-04-28 03:45 | 10.60263 | -66.99585 | 275 ft | 34 kts | 265° |
| 2026-04-28 03:46 | 10.60254 | -66.99848 | 284 ft | 31 kts | 266° |
| 2026-04-28 03:46 | 10.60219 | -66.99918 | 290 ft | 7 kts | 201° |
| 2026-04-28 03:46 | 10.60177 | -66.99922 | 291 ft | 6 kts | 180° |
| 2026-04-28 03:46 | 10.60127 | -66.99920 | 293 ft | 8 kts | 179° |
| 2026-04-28 03:47 | 10.60053 | -66.99917 | 297 ft | 12 kts | 179° |
| 2026-04-28 03:47 | 10.59953 | -66.99918 | 304 ft | 12 kts | 180° |
| 2026-04-28 03:47 | 10.59912 | -66.99945 | 308 ft | 7 kts | 252° |
| 2026-04-28 03:47 | 10.59906 | -67.00042 | 309 ft | 20 kts | 268° |
| 2026-04-28 03:48 | 10.59904 | -67.00226 | 308 ft | 25 kts | 278° |
| 2026-04-28 03:48 | 10.59982 | -67.00312 | 305 ft | 7 kts | 306° |
| 2026-04-28 03:48 | 10.60000 | -67.00394 | 303 ft | 17 kts | 270° |
| 2026-04-28 03:48 | 10.60055 | -67.00434 | 300 ft | 9 kts | 354° |
| 2026-04-28 03:49 | 10.60118 | -67.00436 | 298 ft | 0 kts | 0° |